sensor_id;sensor_type;location;lat;lon;timestamp;P1;durP1;ratioP1;P2;durP2;ratioP2
19944;SDS011;10134;50.952;6.930;2023-06-19T00:00:22;4.68;;;4.10;;
19944;SDS011;10134;50.952;6.930;2023-06-19T00:02:50;5.10;;;3.53;;
19944;SDS011;10134;50.952;6.930;2023-06-19T00:05:18;4.60;;;3.50;;
19944;SDS011;10134;50.952;6.930;2023-06-19T00:07:45;7.00;;;4.15;;
19944;SDS011;10134;50.952;6.930;2023-06-19T00:10:13;4.45;;;3.38;;
19944;SDS011;10134;50.952;6.930;2023-06-19T00:12:41;4.32;;;3.85;;
19944;SDS011;10134;50.952;6.930;2023-06-19T00:15:08;4.50;;;3.60;;
19944;SDS011;10134;50.952;6.930;2023-06-19T00:17:36;4.40;;;3.47;;
19944;SDS011;10134;50.952;6.930;2023-06-19T00:20:04;8.55;;;3.55;;
19944;SDS011;10134;50.952;6.930;2023-06-19T00:22:33;4.82;;;3.53;;
19944;SDS011;10134;50.952;6.930;2023-06-19T00:25:00;4.93;;;4.22;;
19944;SDS011;10134;50.952;6.930;2023-06-19T00:27:28;5.43;;;4.00;;
19944;SDS011;10134;50.952;6.930;2023-06-19T00:29:56;7.18;;;4.03;;
19944;SDS011;10134;50.952;6.930;2023-06-19T00:32:29;4.38;;;3.90;;
19944;SDS011;10134;50.952;6.930;2023-06-19T00:34:56;5.75;;;4.28;;
19944;SDS011;10134;50.952;6.930;2023-06-19T00:37:25;4.25;;;3.80;;
19944;SDS011;10134;50.952;6.930;2023-06-19T00:39:53;4.13;;;3.67;;
19944;SDS011;10134;50.952;6.930;2023-06-19T00:42:20;4.28;;;3.88;;
19944;SDS011;10134;50.952;6.930;2023-06-19T00:44:48;5.28;;;4.28;;
19944;SDS011;10134;50.952;6.930;2023-06-19T00:47:15;5.43;;;4.63;;
19944;SDS011;10134;50.952;6.930;2023-06-19T00:49:43;5.80;;;4.55;;
19944;SDS011;10134;50.952;6.930;2023-06-19T00:52:10;5.15;;;4.20;;
19944;SDS011;10134;50.952;6.930;2023-06-19T00:54:38;8.50;;;6.03;;
19944;SDS011;10134;50.952;6.930;2023-06-19T00:57:19;7.47;;;4.93;;
19944;SDS011;10134;50.952;6.930;2023-06-19T00:59:47;4.90;;;4.30;;
19944;SDS011;10134;50.952;6.930;2023-06-19T01:02:15;5.88;;;4.93;;
19944;SDS011;10134;50.952;6.930;2023-06-19T01:04:43;5.60;;;4.65;;
19944;SDS011;10134;50.952;6.930;2023-06-19T01:07:12;4.82;;;4.28;;
19944;SDS011;10134;50.952;6.930;2023-06-19T01:09:46;5.53;;;4.30;;
19944;SDS011;10134;50.952;6.930;2023-06-19T01:12:30;6.05;;;5.03;;
19944;SDS011;10134;50.952;6.930;2023-06-19T01:15:03;6.07;;;4.75;;
19944;SDS011;10134;50.952;6.930;2023-06-19T01:17:32;6.35;;;4.68;;
19944;SDS011;10134;50.952;6.930;2023-06-19T01:20:00;6.55;;;5.13;;
19944;SDS011;10134;50.952;6.930;2023-06-19T01:22:33;4.95;;;4.40;;
19944;SDS011;10134;50.952;6.930;2023-06-19T01:25:01;5.85;;;4.85;;
19944;SDS011;10134;50.952;6.930;2023-06-19T01:27:28;5.72;;;5.13;;
19944;SDS011;10134;50.952;6.930;2023-06-19T01:29:59;5.15;;;4.65;;
19944;SDS011;10134;50.952;6.930;2023-06-19T01:35:00;6.40;;;5.50;;
19944;SDS011;10134;50.952;6.930;2023-06-19T01:37:29;6.00;;;5.40;;
19944;SDS011;10134;50.952;6.930;2023-06-19T01:40:00;6.38;;;5.38;;
19944;SDS011;10134;50.952;6.930;2023-06-19T01:42:31;6.03;;;5.43;;
19944;SDS011;10134;50.952;6.930;2023-06-19T01:45:02;7.65;;;5.47;;
19944;SDS011;10134;50.952;6.930;2023-06-19T01:47:31;6.53;;;4.93;;
19944;SDS011;10134;50.952;6.930;2023-06-19T01:49:59;8.32;;;5.15;;
19944;SDS011;10134;50.952;6.930;2023-06-19T01:52:26;6.63;;;5.20;;
19944;SDS011;10134;50.952;6.930;2023-06-19T01:54:54;8.27;;;5.10;;
19944;SDS011;10134;50.952;6.930;2023-06-19T01:57:21;6.93;;;5.45;;
19944;SDS011;10134;50.952;6.930;2023-06-19T01:59:49;6.90;;;5.32;;
19944;SDS011;10134;50.952;6.930;2023-06-19T02:02:17;6.70;;;5.63;;
19944;SDS011;10134;50.952;6.930;2023-06-19T02:04:44;6.07;;;5.20;;
19944;SDS011;10134;50.952;6.930;2023-06-19T02:07:12;6.10;;;4.72;;
19944;SDS011;10134;50.952;6.930;2023-06-19T02:09:40;6.35;;;5.53;;
19944;SDS011;10134;50.952;6.930;2023-06-19T02:12:08;6.93;;;5.25;;
19944;SDS011;10134;50.952;6.930;2023-06-19T02:14:36;6.30;;;5.15;;
19944;SDS011;10134;50.952;6.930;2023-06-19T02:17:03;8.88;;;5.68;;
19944;SDS011;10134;50.952;6.930;2023-06-19T02:19:30;6.88;;;5.72;;
19944;SDS011;10134;50.952;6.930;2023-06-19T02:21:58;6.25;;;5.38;;
19944;SDS011;10134;50.952;6.930;2023-06-19T02:24:25;6.32;;;5.70;;
19944;SDS011;10134;50.952;6.930;2023-06-19T02:26:53;6.82;;;5.20;;
19944;SDS011;10134;50.952;6.930;2023-06-19T02:29:20;7.88;;;5.55;;
19944;SDS011;10134;50.952;6.930;2023-06-19T02:31:48;7.47;;;5.93;;
19944;SDS011;10134;50.952;6.930;2023-06-19T02:34:16;7.15;;;5.70;;
19944;SDS011;10134;50.952;6.930;2023-06-19T02:36:46;6.38;;;5.60;;
19944;SDS011;10134;50.952;6.930;2023-06-19T02:39:14;6.88;;;5.35;;
19944;SDS011;10134;50.952;6.930;2023-06-19T02:41:41;7.53;;;5.40;;
19944;SDS011;10134;50.952;6.930;2023-06-19T02:44:13;6.57;;;5.28;;
19944;SDS011;10134;50.952;6.930;2023-06-19T02:46:43;6.28;;;5.22;;
19944;SDS011;10134;50.952;6.930;2023-06-19T02:49:10;7.70;;;5.25;;
19944;SDS011;10134;50.952;6.930;2023-06-19T02:51:38;5.65;;;5.10;;
19944;SDS011;10134;50.952;6.930;2023-06-19T02:54:08;6.35;;;5.68;;
19944;SDS011;10134;50.952;6.930;2023-06-19T02:56:35;8.73;;;5.78;;
19944;SDS011;10134;50.952;6.930;2023-06-19T02:59:03;7.28;;;5.72;;
19944;SDS011;10134;50.952;6.930;2023-06-19T03:01:34;6.22;;;5.20;;
19944;SDS011;10134;50.952;6.930;2023-06-19T03:04:02;6.88;;;5.25;;
19944;SDS011;10134;50.952;6.930;2023-06-19T03:06:30;5.80;;;5.10;;
19944;SDS011;10134;50.952;6.930;2023-06-19T03:08:58;7.18;;;5.90;;
19944;SDS011;10134;50.952;6.930;2023-06-19T03:11:26;7.25;;;5.55;;
19944;SDS011;10134;50.952;6.930;2023-06-19T03:13:54;9.40;;;5.65;;
19944;SDS011;10134;50.952;6.930;2023-06-19T03:16:24;7.00;;;5.95;;
19944;SDS011;10134;50.952;6.930;2023-06-19T03:18:52;6.63;;;5.57;;
19944;SDS011;10134;50.952;6.930;2023-06-19T03:21:22;9.18;;;5.60;;
19944;SDS011;10134;50.952;6.930;2023-06-19T03:23:51;7.18;;;6.10;;
19944;SDS011;10134;50.952;6.930;2023-06-19T03:26:21;6.57;;;5.57;;
19944;SDS011;10134;50.952;6.930;2023-06-19T03:28:49;8.13;;;6.28;;
19944;SDS011;10134;50.952;6.930;2023-06-19T03:31:17;7.22;;;5.70;;
19944;SDS011;10134;50.952;6.930;2023-06-19T03:33:45;10.38;;;6.20;;
19944;SDS011;10134;50.952;6.930;2023-06-19T03:36:13;7.28;;;5.70;;
19944;SDS011;10134;50.952;6.930;2023-06-19T03:38:51;8.43;;;5.72;;
19944;SDS011;10134;50.952;6.930;2023-06-19T03:41:23;7.07;;;5.95;;
19944;SDS011;10134;50.952;6.930;2023-06-19T03:43:53;7.15;;;6.30;;
19944;SDS011;10134;50.952;6.930;2023-06-19T03:46:20;7.05;;;6.32;;
19944;SDS011;10134;50.952;6.930;2023-06-19T03:48:48;7.80;;;6.30;;
19944;SDS011;10134;50.952;6.930;2023-06-19T03:51:15;7.22;;;5.43;;
19944;SDS011;10134;50.952;6.930;2023-06-19T03:53:43;9.82;;;5.00;;
19944;SDS011;10134;50.952;6.930;2023-06-19T03:56:11;7.00;;;5.53;;
19944;SDS011;10134;50.952;6.930;2023-06-19T03:58:38;5.82;;;5.13;;
19944;SDS011;10134;50.952;6.930;2023-06-19T04:01:06;9.13;;;5.28;;
19944;SDS011;10134;50.952;6.930;2023-06-19T04:03:36;7.93;;;5.35;;
19944;SDS011;10134;50.952;6.930;2023-06-19T04:06:07;6.57;;;4.70;;
19944;SDS011;10134;50.952;6.930;2023-06-19T04:08:38;7.22;;;4.65;;
19944;SDS011;10134;50.952;6.930;2023-06-19T04:11:06;6.38;;;5.07;;
19944;SDS011;10134;50.952;6.930;2023-06-19T04:13:34;7.55;;;4.07;;
19944;SDS011;10134;50.952;6.930;2023-06-19T04:16:01;8.57;;;4.32;;
19944;SDS011;10134;50.952;6.930;2023-06-19T04:18:28;6.63;;;4.30;;
19944;SDS011;10134;50.952;6.930;2023-06-19T04:20:56;6.43;;;4.53;;
19944;SDS011;10134;50.952;6.930;2023-06-19T04:23:23;4.32;;;3.67;;
19944;SDS011;10134;50.952;6.930;2023-06-19T04:25:51;5.05;;;3.42;;
19944;SDS011;10134;50.952;6.930;2023-06-19T04:28:19;4.97;;;3.28;;
19944;SDS011;10134;50.952;6.930;2023-06-19T04:30:47;5.25;;;3.58;;
19944;SDS011;10134;50.952;6.930;2023-06-19T04:33:14;5.45;;;4.10;;
19944;SDS011;10134;50.952;6.930;2023-06-19T04:35:42;4.82;;;3.50;;
19944;SDS011;10134;50.952;6.930;2023-06-19T04:38:10;8.57;;;3.80;;
19944;SDS011;10134;50.952;6.930;2023-06-19T04:40:37;4.43;;;2.95;;
19944;SDS011;10134;50.952;6.930;2023-06-19T04:43:04;4.57;;;2.67;;
19944;SDS011;10134;50.952;6.930;2023-06-19T04:45:32;4.47;;;2.75;;
19944;SDS011;10134;50.952;6.930;2023-06-19T04:48:00;4.85;;;2.67;;
19944;SDS011;10134;50.952;6.930;2023-06-19T04:50:30;5.38;;;2.75;;
19944;SDS011;10134;50.952;6.930;2023-06-19T04:52:58;6.13;;;2.80;;
19944;SDS011;10134;50.952;6.930;2023-06-19T04:55:25;5.97;;;2.88;;
19944;SDS011;10134;50.952;6.930;2023-06-19T04:57:53;4.22;;;2.38;;
19944;SDS011;10134;50.952;6.930;2023-06-19T05:00:21;3.67;;;2.65;;
19944;SDS011;10134;50.952;6.930;2023-06-19T05:02:53;4.72;;;3.00;;
19944;SDS011;10134;50.952;6.930;2023-06-19T05:05:28;4.97;;;2.45;;
19944;SDS011;10134;50.952;6.930;2023-06-19T05:07:55;3.40;;;2.47;;
19944;SDS011;10134;50.952;6.930;2023-06-19T05:10:23;6.05;;;2.80;;
19944;SDS011;10134;50.952;6.930;2023-06-19T05:12:51;4.78;;;2.45;;
19944;SDS011;10134;50.952;6.930;2023-06-19T05:15:19;5.25;;;3.10;;
19944;SDS011;10134;50.952;6.930;2023-06-19T05:17:46;5.07;;;2.63;;
19944;SDS011;10134;50.952;6.930;2023-06-19T05:20:14;4.47;;;2.78;;
19944;SDS011;10134;50.952;6.930;2023-06-19T05:22:42;3.58;;;2.53;;
19944;SDS011;10134;50.952;6.930;2023-06-19T05:25:10;2.88;;;2.03;;
19944;SDS011;10134;50.952;6.930;2023-06-19T05:27:37;4.13;;;2.15;;
19944;SDS011;10134;50.952;6.930;2023-06-19T05:30:05;11.73;;;3.00;;
19944;SDS011;10134;50.952;6.930;2023-06-19T05:32:33;4.60;;;2.70;;
19944;SDS011;10134;50.952;6.930;2023-06-19T05:35:01;5.65;;;2.33;;
19944;SDS011;10134;50.952;6.930;2023-06-19T05:37:28;3.70;;;2.70;;
19944;SDS011;10134;50.952;6.930;2023-06-19T05:39:56;3.35;;;2.50;;
19944;SDS011;10134;50.952;6.930;2023-06-19T05:42:24;3.22;;;2.35;;
19944;SDS011;10134;50.952;6.930;2023-06-19T05:44:51;3.42;;;2.33;;
19944;SDS011;10134;50.952;6.930;2023-06-19T05:47:24;3.30;;;2.20;;
19944;SDS011;10134;50.952;6.930;2023-06-19T05:49:53;2.03;;;1.80;;
19944;SDS011;10134;50.952;6.930;2023-06-19T05:52:20;4.93;;;2.47;;
19944;SDS011;10134;50.952;6.930;2023-06-19T05:54:48;8.02;;;2.20;;
19944;SDS011;10134;50.952;6.930;2023-06-19T05:57:15;3.47;;;1.88;;
19944;SDS011;10134;50.952;6.930;2023-06-19T05:59:47;3.08;;;1.70;;
19944;SDS011;10134;50.952;6.930;2023-06-19T06:02:16;3.85;;;1.85;;
19944;SDS011;10134;50.952;6.930;2023-06-19T06:04:46;4.07;;;1.88;;
19944;SDS011;10134;50.952;6.930;2023-06-19T06:07:13;2.95;;;1.70;;
19944;SDS011;10134;50.952;6.930;2023-06-19T06:09:41;2.35;;;1.90;;
19944;SDS011;10134;50.952;6.930;2023-06-19T06:12:09;3.90;;;1.70;;
19944;SDS011;10134;50.952;6.930;2023-06-19T06:14:37;7.07;;;2.65;;
19944;SDS011;10134;50.952;6.930;2023-06-19T06:17:04;1.48;;;1.30;;
19944;SDS011;10134;50.952;6.930;2023-06-19T06:19:33;2.33;;;1.38;;
19944;SDS011;10134;50.952;6.930;2023-06-19T06:22:00;2.95;;;1.63;;
19944;SDS011;10134;50.952;6.930;2023-06-19T06:24:27;6.13;;;1.70;;
19944;SDS011;10134;50.952;6.930;2023-06-19T06:26:55;2.47;;;1.67;;
19944;SDS011;10134;50.952;6.930;2023-06-19T06:29:22;2.03;;;1.42;;
19944;SDS011;10134;50.952;6.930;2023-06-19T06:31:50;3.45;;;1.55;;
19944;SDS011;10134;50.952;6.930;2023-06-19T06:34:19;4.10;;;1.60;;
19944;SDS011;10134;50.952;6.930;2023-06-19T06:36:46;1.70;;;1.30;;
19944;SDS011;10134;50.952;6.930;2023-06-19T06:39:30;4.50;;;1.40;;
19944;SDS011;10134;50.952;6.930;2023-06-19T06:41:58;2.40;;;1.40;;
19944;SDS011;10134;50.952;6.930;2023-06-19T06:44:26;2.60;;;1.95;;
19944;SDS011;10134;50.952;6.930;2023-06-19T06:46:53;2.10;;;1.55;;
19944;SDS011;10134;50.952;6.930;2023-06-19T06:49:22;1.75;;;1.48;;
19944;SDS011;10134;50.952;6.930;2023-06-19T06:51:49;4.03;;;1.77;;
19944;SDS011;10134;50.952;6.930;2023-06-19T06:54:17;3.17;;;1.83;;
19944;SDS011;10134;50.952;6.930;2023-06-19T06:56:44;2.75;;;1.50;;
19944;SDS011;10134;50.952;6.930;2023-06-19T06:59:14;2.30;;;1.35;;
19944;SDS011;10134;50.952;6.930;2023-06-19T07:01:42;2.25;;;1.30;;
19944;SDS011;10134;50.952;6.930;2023-06-19T07:04:09;3.80;;;0.90;;
19944;SDS011;10134;50.952;6.930;2023-06-19T07:06:37;2.72;;;1.30;;
19944;SDS011;10134;50.952;6.930;2023-06-19T07:09:04;1.50;;;1.33;;
19944;SDS011;10134;50.952;6.930;2023-06-19T07:11:32;2.38;;;1.20;;
19944;SDS011;10134;50.952;6.930;2023-06-19T07:14:00;1.33;;;1.00;;
19944;SDS011;10134;50.952;6.930;2023-06-19T07:16:28;1.63;;;0.90;;
19944;SDS011;10134;50.952;6.930;2023-06-19T07:18:55;1.73;;;1.05;;
19944;SDS011;10134;50.952;6.930;2023-06-19T07:21:23;1.15;;;0.93;;
19944;SDS011;10134;50.952;6.930;2023-06-19T07:23:51;1.63;;;1.02;;
19944;SDS011;10134;50.952;6.930;2023-06-19T07:26:19;1.55;;;1.38;;
19944;SDS011;10134;50.952;6.930;2023-06-19T07:28:58;1.20;;;1.10;;
19944;SDS011;10134;50.952;6.930;2023-06-19T07:31:26;1.42;;;0.90;;
19944;SDS011;10134;50.952;6.930;2023-06-19T07:33:53;1.00;;;0.90;;
19944;SDS011;10134;50.952;6.930;2023-06-19T07:36:21;1.33;;;1.05;;
19944;SDS011;10134;50.952;6.930;2023-06-19T07:38:48;1.48;;;1.00;;
19944;SDS011;10134;50.952;6.930;2023-06-19T07:41:16;2.97;;;1.08;;
19944;SDS011;10134;50.952;6.930;2023-06-19T07:43:43;1.30;;;1.02;;
19944;SDS011;10134;50.952;6.930;2023-06-19T07:46:11;2.28;;;1.10;;
19944;SDS011;10134;50.952;6.930;2023-06-19T07:48:39;2.13;;;1.10;;
19944;SDS011;10134;50.952;6.930;2023-06-19T07:51:06;1.27;;;1.02;;
19944;SDS011;10134;50.952;6.930;2023-06-19T07:53:34;1.08;;;0.90;;
19944;SDS011;10134;50.952;6.930;2023-06-19T07:56:02;1.52;;;1.27;;
19944;SDS011;10134;50.952;6.930;2023-06-19T07:58:29;1.67;;;1.13;;
19944;SDS011;10134;50.952;6.930;2023-06-19T08:00:57;2.30;;;1.48;;
19944;SDS011;10134;50.952;6.930;2023-06-19T08:03:24;3.58;;;1.33;;
19944;SDS011;10134;50.952;6.930;2023-06-19T08:05:52;3.05;;;1.20;;
19944;SDS011;10134;50.952;6.930;2023-06-19T08:08:19;2.75;;;1.38;;
19944;SDS011;10134;50.952;6.930;2023-06-19T08:10:47;2.42;;;1.10;;
19944;SDS011;10134;50.952;6.930;2023-06-19T08:13:14;3.80;;;1.25;;
19944;SDS011;10134;50.952;6.930;2023-06-19T08:15:42;2.08;;;1.55;;
19944;SDS011;10134;50.952;6.930;2023-06-19T08:18:11;1.05;;;0.93;;
19944;SDS011;10134;50.952;6.930;2023-06-19T08:20:39;2.05;;;1.23;;
19944;SDS011;10134;50.952;6.930;2023-06-19T08:23:06;1.95;;;1.38;;
19944;SDS011;10134;50.952;6.930;2023-06-19T08:25:33;4.43;;;1.83;;
19944;SDS011;10134;50.952;6.930;2023-06-19T08:28:01;6.90;;;3.50;;
19944;SDS011;10134;50.952;6.930;2023-06-19T08:30:28;6.00;;;1.80;;
19944;SDS011;10134;50.952;6.930;2023-06-19T08:32:56;2.88;;;1.50;;
19944;SDS011;10134;50.952;6.930;2023-06-19T08:35:24;1.75;;;1.38;;
19944;SDS011;10134;50.952;6.930;2023-06-19T08:37:51;3.58;;;1.70;;
19944;SDS011;10134;50.952;6.930;2023-06-19T08:40:19;4.22;;;1.77;;
19944;SDS011;10134;50.952;6.930;2023-06-19T08:42:47;5.65;;;1.75;;
19944;SDS011;10134;50.952;6.930;2023-06-19T08:45:14;4.80;;;1.45;;
19944;SDS011;10134;50.952;6.930;2023-06-19T08:47:43;4.05;;;2.03;;
19944;SDS011;10134;50.952;6.930;2023-06-19T08:50:11;5.32;;;1.85;;
19944;SDS011;10134;50.952;6.930;2023-06-19T08:52:39;3.95;;;2.30;;
19944;SDS011;10134;50.952;6.930;2023-06-19T08:55:07;4.93;;;2.05;;
19944;SDS011;10134;50.952;6.930;2023-06-19T08:57:37;2.97;;;2.15;;
19944;SDS011;10134;50.952;6.930;2023-06-19T09:00:05;2.83;;;1.70;;
19944;SDS011;10134;50.952;6.930;2023-06-19T09:02:45;4.90;;;2.22;;
19944;SDS011;10134;50.952;6.930;2023-06-19T09:05:26;2.58;;;2.00;;
19944;SDS011;10134;50.952;6.930;2023-06-19T09:07:58;2.72;;;2.08;;
19944;SDS011;10134;50.952;6.930;2023-06-19T09:10:34;4.85;;;2.83;;
19944;SDS011;10134;50.952;6.930;2023-06-19T09:13:02;8.85;;;3.58;;
19944;SDS011;10134;50.952;6.930;2023-06-19T09:15:31;9.43;;;3.47;;
19944;SDS011;10134;50.952;6.930;2023-06-19T09:18:05;5.65;;;3.85;;
19944;SDS011;10134;50.952;6.930;2023-06-19T09:20:34;9.55;;;4.45;;
19944;SDS011;10134;50.952;6.930;2023-06-19T09:23:05;4.97;;;3.78;;
19944;SDS011;10134;50.952;6.930;2023-06-19T09:25:42;9.32;;;4.07;;
19944;SDS011;10134;50.952;6.930;2023-06-19T09:28:18;9.90;;;4.57;;
19944;SDS011;10134;50.952;6.930;2023-06-19T09:30:52;9.30;;;4.32;;
19944;SDS011;10134;50.952;6.930;2023-06-19T09:33:20;33.15;;;17.35;;
19944;SDS011;10134;50.952;6.930;2023-06-19T09:35:49;24.85;;;13.05;;
19944;SDS011;10134;50.952;6.930;2023-06-19T09:38:17;8.73;;;5.45;;
19944;SDS011;10134;50.952;6.930;2023-06-19T09:40:46;5.32;;;3.88;;
19944;SDS011;10134;50.952;6.930;2023-06-19T09:43:16;4.78;;;3.22;;
19944;SDS011;10134;50.952;6.930;2023-06-19T09:45:50;4.82;;;2.38;;
19944;SDS011;10134;50.952;6.930;2023-06-19T09:48:26;3.22;;;2.42;;
19944;SDS011;10134;50.952;6.930;2023-06-19T09:51:00;6.53;;;3.08;;
19944;SDS011;10134;50.952;6.930;2023-06-19T09:53:35;2.85;;;2.20;;
19944;SDS011;10134;50.952;6.930;2023-06-19T09:56:02;4.65;;;3.00;;
19944;SDS011;10134;50.952;6.930;2023-06-19T09:58:30;7.47;;;3.08;;
19944;SDS011;10134;50.952;6.930;2023-06-19T10:00:58;5.88;;;3.05;;
19944;SDS011;10134;50.952;6.930;2023-06-19T10:03:30;4.47;;;2.92;;
19944;SDS011;10134;50.952;6.930;2023-06-19T10:06:02;6.22;;;3.20;;
19944;SDS011;10134;50.952;6.930;2023-06-19T10:08:37;5.55;;;2.97;;
19944;SDS011;10134;50.952;6.930;2023-06-19T10:11:07;8.30;;;3.63;;
19944;SDS011;10134;50.952;6.930;2023-06-19T10:13:35;4.72;;;2.80;;
19944;SDS011;10134;50.952;6.930;2023-06-19T10:16:05;4.45;;;2.85;;
19944;SDS011;10134;50.952;6.930;2023-06-19T10:18:46;5.35;;;2.97;;
19944;SDS011;10134;50.952;6.930;2023-06-19T10:21:20;4.60;;;2.58;;
19944;SDS011;10134;50.952;6.930;2023-06-19T10:23:55;4.82;;;2.80;;
19944;SDS011;10134;50.952;6.930;2023-06-19T10:26:34;5.40;;;3.38;;
19944;SDS011;10134;50.952;6.930;2023-06-19T10:29:12;3.83;;;2.80;;
19944;SDS011;10134;50.952;6.930;2023-06-19T10:31:41;4.43;;;3.17;;
19944;SDS011;10134;50.952;6.930;2023-06-19T10:34:08;6.18;;;3.17;;
19944;SDS011;10134;50.952;6.930;2023-06-19T10:36:35;4.05;;;2.70;;
19944;SDS011;10134;50.952;6.930;2023-06-19T10:39:03;5.68;;;3.63;;
19944;SDS011;10134;50.952;6.930;2023-06-19T10:41:31;5.40;;;3.00;;
19944;SDS011;10134;50.952;6.930;2023-06-19T10:44:07;3.55;;;2.58;;
19944;SDS011;10134;50.952;6.930;2023-06-19T10:46:39;4.55;;;2.95;;
19944;SDS011;10134;50.952;6.930;2023-06-19T10:49:07;4.57;;;3.58;;
19944;SDS011;10134;50.952;6.930;2023-06-19T10:51:37;4.88;;;2.90;;
19944;SDS011;10134;50.952;6.930;2023-06-19T10:54:05;4.93;;;2.78;;
19944;SDS011;10134;50.952;6.930;2023-06-19T10:56:33;5.13;;;3.00;;
19944;SDS011;10134;50.952;6.930;2023-06-19T10:59:05;7.65;;;3.30;;
19944;SDS011;10134;50.952;6.930;2023-06-19T11:01:41;4.35;;;3.08;;
19944;SDS011;10134;50.952;6.930;2023-06-19T11:04:12;6.65;;;3.30;;
19944;SDS011;10134;50.952;6.930;2023-06-19T11:06:41;4.63;;;3.28;;
19944;SDS011;10134;50.952;6.930;2023-06-19T11:09:10;6.25;;;2.88;;
19944;SDS011;10134;50.952;6.930;2023-06-19T11:14:07;3.97;;;2.95;;
19944;SDS011;10134;50.952;6.930;2023-06-19T11:16:40;3.83;;;3.08;;
19944;SDS011;10134;50.952;6.930;2023-06-19T11:19:15;6.25;;;3.30;;
19944;SDS011;10134;50.952;6.930;2023-06-19T11:21:47;4.60;;;3.00;;
19944;SDS011;10134;50.952;6.930;2023-06-19T11:24:16;5.63;;;3.50;;
19944;SDS011;10134;50.952;6.930;2023-06-19T11:26:46;5.03;;;3.17;;
19944;SDS011;10134;50.952;6.930;2023-06-19T11:29:19;6.20;;;3.20;;
19944;SDS011;10134;50.952;6.930;2023-06-19T11:31:49;4.05;;;3.13;;
19944;SDS011;10134;50.952;6.930;2023-06-19T11:34:17;7.53;;;3.53;;
19944;SDS011;10134;50.952;6.930;2023-06-19T11:36:49;3.28;;;2.50;;
19944;SDS011;10134;50.952;6.930;2023-06-19T11:39:17;3.70;;;2.95;;
19944;SDS011;10134;50.952;6.930;2023-06-19T11:41:45;5.43;;;3.22;;
19944;SDS011;10134;50.952;6.930;2023-06-19T11:44:12;5.45;;;3.22;;
19944;SDS011;10134;50.952;6.930;2023-06-19T11:46:41;4.90;;;3.50;;
19944;SDS011;10134;50.952;6.930;2023-06-19T11:49:10;7.68;;;3.80;;
19944;SDS011;10134;50.952;6.930;2023-06-19T11:51:40;4.78;;;3.45;;
19944;SDS011;10134;50.952;6.930;2023-06-19T11:54:09;14.05;;;3.88;;
19944;SDS011;10134;50.952;6.930;2023-06-19T11:56:38;4.85;;;3.20;;
19944;SDS011;10134;50.952;6.930;2023-06-19T11:59:06;6.93;;;3.20;;
19944;SDS011;10134;50.952;6.930;2023-06-19T12:01:35;4.32;;;3.45;;
19944;SDS011;10134;50.952;6.930;2023-06-19T12:04:03;5.43;;;3.22;;
19944;SDS011;10134;50.952;6.930;2023-06-19T12:06:32;4.25;;;3.15;;
19944;SDS011;10134;50.952;6.930;2023-06-19T12:08:59;15.88;;;3.50;;
19944;SDS011;10134;50.952;6.930;2023-06-19T12:11:26;4.40;;;3.10;;
19944;SDS011;10134;50.952;6.930;2023-06-19T12:13:54;4.95;;;3.22;;
19944;SDS011;10134;50.952;6.930;2023-06-19T12:16:22;3.85;;;2.75;;
19944;SDS011;10134;50.952;6.930;2023-06-19T12:18:50;4.80;;;3.55;;
19944;SDS011;10134;50.952;6.930;2023-06-19T12:21:17;5.80;;;2.97;;
19944;SDS011;10134;50.952;6.930;2023-06-19T12:24:01;3.60;;;2.88;;
19944;SDS011;10134;50.952;6.930;2023-06-19T12:26:29;8.55;;;3.17;;
19944;SDS011;10134;50.952;6.930;2023-06-19T12:28:57;3.75;;;2.75;;
19944;SDS011;10134;50.952;6.930;2023-06-19T12:31:24;3.38;;;2.40;;
19944;SDS011;10134;50.952;6.930;2023-06-19T12:33:51;7.88;;;2.80;;
19944;SDS011;10134;50.952;6.930;2023-06-19T12:36:19;5.20;;;3.03;;
19944;SDS011;10134;50.952;6.930;2023-06-19T12:38:46;6.15;;;3.28;;
19944;SDS011;10134;50.952;6.930;2023-06-19T12:41:15;4.30;;;2.83;;
19944;SDS011;10134;50.952;6.930;2023-06-19T12:43:42;3.95;;;2.55;;
19944;SDS011;10134;50.952;6.930;2023-06-19T12:46:10;3.53;;;2.45;;
19944;SDS011;10134;50.952;6.930;2023-06-19T12:48:37;4.65;;;2.80;;
19944;SDS011;10134;50.952;6.930;2023-06-19T12:51:04;6.60;;;4.88;;
19944;SDS011;10134;50.952;6.930;2023-06-19T12:53:31;6.05;;;4.32;;
19944;SDS011;10134;50.952;6.930;2023-06-19T12:55:59;10.68;;;7.28;;
19944;SDS011;10134;50.952;6.930;2023-06-19T12:58:33;6.13;;;3.58;;
19944;SDS011;10134;50.952;6.930;2023-06-19T13:01:00;5.30;;;3.20;;
19944;SDS011;10134;50.952;6.930;2023-06-19T13:03:28;4.05;;;2.65;;
19944;SDS011;10134;50.952;6.930;2023-06-19T13:05:55;5.82;;;2.45;;
19944;SDS011;10134;50.952;6.930;2023-06-19T13:10:57;4.18;;;2.28;;
19944;SDS011;10134;50.952;6.930;2023-06-19T13:13:25;7.72;;;2.83;;
19944;SDS011;10134;50.952;6.930;2023-06-19T13:15:52;7.13;;;3.42;;
19944;SDS011;10134;50.952;6.930;2023-06-19T13:18:19;4.60;;;2.85;;
19944;SDS011;10134;50.952;6.930;2023-06-19T13:20:47;5.20;;;3.05;;
19944;SDS011;10134;50.952;6.930;2023-06-19T13:23:14;4.32;;;2.90;;
19944;SDS011;10134;50.952;6.930;2023-06-19T13:25:42;4.65;;;3.28;;
19944;SDS011;10134;50.952;6.930;2023-06-19T13:28:09;3.63;;;2.50;;
19944;SDS011;10134;50.952;6.930;2023-06-19T13:30:36;3.47;;;2.70;;
19944;SDS011;10134;50.952;6.930;2023-06-19T13:33:03;3.42;;;2.13;;
19944;SDS011;10134;50.952;6.930;2023-06-19T13:35:31;4.68;;;3.00;;
19944;SDS011;10134;50.952;6.930;2023-06-19T13:37:59;3.95;;;2.13;;
19944;SDS011;10134;50.952;6.930;2023-06-19T13:40:26;4.43;;;2.28;;
19944;SDS011;10134;50.952;6.930;2023-06-19T13:42:53;3.97;;;2.38;;
19944;SDS011;10134;50.952;6.930;2023-06-19T13:45:21;5.45;;;3.13;;
19944;SDS011;10134;50.952;6.930;2023-06-19T13:47:48;5.30;;;3.63;;
19944;SDS011;10134;50.952;6.930;2023-06-19T13:50:16;2.75;;;2.15;;
19944;SDS011;10134;50.952;6.930;2023-06-19T13:52:45;4.03;;;2.70;;
19944;SDS011;10134;50.952;6.930;2023-06-19T13:55:13;4.45;;;2.50;;
19944;SDS011;10134;50.952;6.930;2023-06-19T13:57:44;2.78;;;2.30;;
19944;SDS011;10134;50.952;6.930;2023-06-19T14:00:12;4.10;;;2.70;;
19944;SDS011;10134;50.952;6.930;2023-06-19T14:02:40;6.10;;;2.33;;
19944;SDS011;10134;50.952;6.930;2023-06-19T14:05:08;6.07;;;3.95;;
19944;SDS011;10134;50.952;6.930;2023-06-19T14:07:36;5.93;;;3.03;;
19944;SDS011;10134;50.952;6.930;2023-06-19T14:10:04;13.07;;;6.40;;
19944;SDS011;10134;50.952;6.930;2023-06-19T14:12:32;8.13;;;4.28;;
19944;SDS011;10134;50.952;6.930;2023-06-19T14:14:59;4.47;;;3.00;;
19944;SDS011;10134;50.952;6.930;2023-06-19T14:17:27;6.03;;;2.63;;
19944;SDS011;10134;50.952;6.930;2023-06-19T14:19:54;3.97;;;2.72;;
19944;SDS011;10134;50.952;6.930;2023-06-19T14:22:24;5.85;;;2.92;;
19944;SDS011;10134;50.952;6.930;2023-06-19T14:24:51;8.25;;;2.97;;
19944;SDS011;10134;50.952;6.930;2023-06-19T14:27:26;4.32;;;2.42;;
19944;SDS011;10134;50.952;6.930;2023-06-19T14:29:56;3.15;;;2.42;;
19944;SDS011;10134;50.952;6.930;2023-06-19T14:32:24;4.60;;;2.58;;
19944;SDS011;10134;50.952;6.930;2023-06-19T14:34:51;9.13;;;2.40;;
19944;SDS011;10134;50.952;6.930;2023-06-19T14:37:19;3.95;;;2.67;;
19944;SDS011;10134;50.952;6.930;2023-06-19T14:39:47;3.22;;;2.20;;
19944;SDS011;10134;50.952;6.930;2023-06-19T14:42:15;5.18;;;2.38;;
19944;SDS011;10134;50.952;6.930;2023-06-19T14:44:42;2.88;;;2.30;;
19944;SDS011;10134;50.952;6.930;2023-06-19T14:47:09;4.50;;;2.97;;
19944;SDS011;10134;50.952;6.930;2023-06-19T14:49:36;7.35;;;2.75;;
19944;SDS011;10134;50.952;6.930;2023-06-19T14:52:05;5.20;;;2.78;;
19944;SDS011;10134;50.952;6.930;2023-06-19T14:54:33;3.38;;;2.75;;
19944;SDS011;10134;50.952;6.930;2023-06-19T14:57:01;4.32;;;2.42;;
19944;SDS011;10134;50.952;6.930;2023-06-19T14:59:29;8.60;;;3.17;;
19944;SDS011;10134;50.952;6.930;2023-06-19T15:01:57;6.10;;;2.92;;
19944;SDS011;10134;50.952;6.930;2023-06-19T15:04:24;2.95;;;2.47;;